Карточка аэропорта USCM

Внимание!
Информация на этой странице в стадии наполнения.
Если вы не увидели какой-то информации, или заметили неточность - пожалуйста сообщите нам!
Спасибо!
Команда RU-STAFF
Название аэропортаМагнитогорск
Название аэропорта (англ.)Magnitogorsk
Превышение436 ft. (132.9 m.)
Координаты53°23.586', 58°45.336'
Высота перехода1300m/5700ft
Эшелон переходаBy ATC
Коды ответчика5501-5517
Зона ОрВДЕкатеринбург РПИ (USSV)
Данные METARUSCM 010700Z 16002MPS 120V190 5000 BR SCT010 OVC040 01/M01 Q1033 R18/190057 TEMPO 1000 BR BKN005 RMK QFE737
Проноз погоды (TAF)
NOTAMshow/hide NOTAM
AWOS   TABLE

Информация о ВПП

ВПП Длина ВПП (м.) Покрытие Курс ВПП Частота ILS
013250Цементобетон5108.7
193250Цементобетон185109.9

Диспетчерские позиции

Позывной Наименование органа УВД Частота
USCM_TWRМагнитогорск-Вышка120.8



Спутниковое изображение